createdAt,value
2022-11-17T00:00:42.307Z,84.98
2022-11-17T00:03:16.097Z,83.81
2022-11-17T00:05:44.499Z,84.08
2022-11-17T00:08:12.551Z,83.32
2022-11-17T00:10:40.200Z,83.73
2022-11-17T00:13:29.162Z,83.24
2022-11-17T00:15:57.156Z,83.37
2022-11-17T00:18:43.157Z,85.14
2022-11-17T00:21:19.142Z,85.73
2022-11-17T00:23:47.945Z,86.10
2022-11-17T00:26:17.465Z,87.33
2022-11-17T00:28:45.475Z,87.26
2022-11-17T00:31:33.302Z,86.84
2022-11-17T00:34:07.399Z,85.67
2022-11-17T00:36:37.084Z,85.46
2022-11-17T00:39:06.141Z,86.31
2022-11-17T00:41:33.891Z,84.96
2022-11-17T00:44:01.586Z,85.35
2022-11-17T00:46:29.813Z,87.05
2022-11-17T00:48:57.596Z,86.22
2022-11-17T00:51:25.648Z,84.62
2022-11-17T00:53:53.640Z,84.48
2022-11-17T00:56:21.450Z,83.83
2022-11-17T00:58:49.268Z,84.89
2022-11-17T01:01:17.800Z,84.25
2022-11-17T01:03:45.630Z,85.54
2022-11-17T01:06:16.212Z,88.34
2022-11-17T01:08:44.545Z,86.33
2022-11-17T01:11:19.533Z,85.04
2022-11-17T01:13:48.207Z,85.00
2022-11-17T01:16:18.715Z,85.69
2022-11-17T01:18:48.677Z,86.97
2022-11-17T01:21:19.861Z,87.42
2022-11-17T01:23:49.024Z,86.17
2022-11-17T01:26:21.856Z,85.77
2022-11-17T01:28:50.074Z,85.76
2022-11-17T01:31:29.729Z,85.45
2022-11-17T01:33:57.870Z,86.99
2022-11-17T01:36:51.868Z,85.57
2022-11-17T01:39:19.832Z,83.62
2022-11-17T01:41:47.939Z,85.14
2022-11-17T01:44:40.514Z,88.13
2022-11-17T01:47:20.628Z,85.07
2022-11-17T01:49:52.210Z,84.47
2022-11-17T01:52:21.120Z,84.23
2022-11-17T01:54:49.299Z,85.60
2022-11-17T01:57:29.516Z,86.68
2022-11-17T02:00:02.207Z,87.58
2022-11-17T02:02:33.898Z,86.38
2022-11-17T02:05:33.169Z,87.24
2022-11-17T02:08:04.630Z,85.60
2022-11-17T02:10:34.405Z,85.57
2022-11-17T02:13:03.191Z,84.40
2022-11-17T02:15:31.657Z,84.56
2022-11-17T02:18:00.678Z,84.97
2022-11-17T02:20:37.824Z,84.24
2022-11-17T02:23:51.664Z,85.18
2022-11-17T02:26:34.547Z,84.96
2022-11-17T02:29:11.619Z,85.01
2022-11-17T02:32:03.349Z,84.83
2022-11-17T02:34:30.804Z,84.19
2022-11-17T02:37:11.076Z,84.06
2022-11-17T02:39:47.501Z,84.66
2022-11-17T02:42:47.715Z,83.81
2022-11-17T02:45:24.979Z,82.99
2022-11-17T02:47:56.183Z,82.80
2022-11-17T02:50:28.563Z,83.53
2022-11-17T02:52:57.136Z,82.25
2022-11-17T02:55:24.953Z,82.73
2022-11-17T02:57:52.638Z,82.69
2022-11-17T03:00:21.165Z,82.12
2022-11-17T03:02:57.931Z,81.72
2022-11-17T03:05:38.088Z,81.02
2022-11-17T03:08:11.658Z,80.40
2022-11-17T03:11:02.871Z,80.77
2022-11-17T03:13:40.569Z,80.26
2022-11-17T03:16:29.624Z,80.78
2022-11-17T03:19:02.186Z,80.07
2022-11-17T03:21:33.372Z,80.44
2022-11-17T03:24:32.938Z,80.69
2022-11-17T03:27:06.379Z,80.59
2022-11-17T03:29:37.177Z,80.67
2022-11-17T03:32:06.667Z,81.57
2022-11-17T03:34:41.566Z,80.93
2022-11-17T03:37:12.032Z,80.68
2022-11-17T03:39:48.469Z,80.63
2022-11-17T03:42:27.518Z,79.76
2022-11-17T03:45:04.600Z,79.76
2022-11-17T03:47:34.628Z,79.68
2022-11-17T03:50:05.715Z,79.79
2022-11-17T03:52:36.095Z,79.15
2022-11-17T03:55:05.166Z,79.03
2022-11-17T03:57:37.497Z,79.46
2022-11-17T04:00:12.060Z,79.99
2022-11-17T04:02:45.071Z,80.15
2022-11-17T04:05:16.625Z,79.90
2022-11-17T04:07:45.218Z,79.50
2022-11-17T04:10:21.883Z,80.35
2022-11-17T04:13:08.164Z,80.25
2022-11-17T04:15:55.226Z,79.98
2022-11-17T04:18:24.088Z,79.91
2022-11-17T04:20:57.342Z,80.38
2022-11-17T04:23:25.974Z,80.43
2022-11-17T04:26:15.257Z,80.15
2022-11-17T04:28:46.293Z,81.40
2022-11-17T04:31:17.139Z,80.64
2022-11-17T04:33:50.274Z,80.18
2022-11-17T04:36:21.114Z,80.24
2022-11-17T04:38:51.150Z,80.64
2022-11-17T04:41:39.391Z,80.56
2022-11-17T04:44:09.034Z,81.09
2022-11-17T04:46:38.337Z,80.78
2022-11-17T04:49:07.151Z,80.71
2022-11-17T04:51:36.029Z,80.76
2022-11-17T04:54:05.234Z,80.86
2022-11-17T04:56:32.981Z,81.67
2022-11-17T04:59:00.631Z,81.05
2022-11-17T05:01:28.996Z,81.45
2022-11-17T05:04:02.257Z,80.95
2022-11-17T05:06:35.854Z,80.96
2022-11-17T05:09:07.435Z,81.06
2022-11-17T05:11:54.012Z,81.09
2022-11-17T05:14:23.974Z,80.91
2022-11-17T05:17:11.167Z,80.99
2022-11-17T05:19:40.886Z,80.90
2022-11-17T05:22:28.601Z,80.80
2022-11-17T05:24:56.786Z,81.20
2022-11-17T05:27:25.174Z,81.55
2022-11-17T05:29:53.370Z,81.22
2022-11-17T05:32:21.143Z,81.85
2022-11-17T05:34:49.246Z,81.21
2022-11-17T05:37:16.994Z,81.62
2022-11-17T05:39:44.616Z,80.68
2022-11-17T05:42:12.663Z,80.76
2022-11-17T05:44:40.364Z,80.17
2022-11-17T05:47:08.679Z,80.23
2022-11-17T05:49:36.623Z,81.00
2022-11-17T05:52:04.405Z,81.16
2022-11-17T05:54:32.073Z,80.37
2022-11-17T05:57:14.807Z,80.50
2022-11-17T05:59:50.602Z,80.15
2022-11-17T06:02:29.224Z,80.27
2022-11-17T06:04:57.213Z,80.14
2022-11-17T06:07:24.959Z,80.11
2022-11-17T06:09:53.405Z,79.96
2022-11-17T06:12:21.301Z,80.04
2022-11-17T06:14:48.949Z,81.28
2022-11-17T06:17:33.858Z,80.75
2022-11-17T06:20:08.563Z,81.11
2022-11-17T06:22:36.500Z,80.64
2022-11-17T06:25:08.069Z,80.00
2022-11-17T06:27:36.986Z,81.40
2022-11-17T06:30:06.160Z,81.10
2022-11-17T06:32:37.339Z,82.31
2022-11-17T06:35:08.829Z,81.67
2022-11-17T06:37:36.464Z,80.60
2022-11-17T06:40:04.611Z,80.72
2022-11-17T06:42:51.303Z,80.41
2022-11-17T06:45:18.892Z,81.50
2022-11-17T06:47:46.893Z,82.13
2022-11-17T06:50:14.628Z,82.62
2022-11-17T06:52:42.327Z,81.47
2022-11-17T06:55:10.844Z,82.56
2022-11-17T06:57:38.579Z,80.77
2022-11-17T07:00:07.248Z,80.54
2022-11-17T07:02:36.816Z,80.87
2022-11-17T07:05:05.116Z,80.49
2022-11-17T07:07:33.055Z,79.97
2022-11-17T07:10:01.159Z,80.27
2022-11-17T07:12:28.847Z,79.68
2022-11-17T07:14:56.589Z,79.19
2022-11-17T07:17:24.677Z,80.43
2022-11-17T07:19:53.712Z,79.77
2022-11-17T07:22:21.486Z,81.02
2022-11-17T07:24:49.535Z,79.91
2022-11-17T07:27:17.255Z,79.61
2022-11-17T07:29:45.147Z,79.88
2022-11-17T07:32:14.284Z,78.99
2022-11-17T07:34:42.688Z,78.44
2022-11-17T07:37:10.340Z,78.52
2022-11-17T07:39:38.828Z,77.73
2022-11-17T07:42:06.656Z,77.77
2022-11-17T07:44:34.520Z,78.11
2022-11-17T07:47:02.563Z,78.30
2022-11-17T07:49:30.261Z,79.42
2022-11-17T07:51:58.061Z,79.40
2022-11-17T07:54:26.010Z,80.24
2022-11-17T07:56:53.773Z,79.52
2022-11-17T07:59:21.892Z,78.91
2022-11-17T08:01:50.077Z,79.26
2022-11-17T08:04:18.097Z,82.29
2022-11-17T08:06:45.848Z,79.93
2022-11-17T08:09:15.601Z,79.59
2022-11-17T08:11:44.213Z,79.93
2022-11-17T08:14:11.949Z,81.05
2022-11-17T08:16:39.547Z,80.41
2022-11-17T08:19:07.631Z,79.17
2022-11-17T08:21:36.873Z,78.55
2022-11-17T08:24:04.827Z,77.83
2022-11-17T08:26:32.830Z,78.78
2022-11-17T08:29:01.991Z,78.44
2022-11-17T08:31:29.700Z,78.36
2022-11-17T08:33:58.833Z,77.74
2022-11-17T08:36:26.943Z,77.07
2022-11-17T08:38:55.732Z,77.18
2022-11-17T08:41:23.852Z,77.20
2022-11-17T08:43:51.838Z,78.08
2022-11-17T08:46:19.723Z,76.87
2022-11-17T08:48:52.201Z,75.99
2022-11-17T08:51:23.330Z,76.35
2022-11-17T08:53:51.253Z,76.31
2022-11-17T08:56:18.943Z,76.61
2022-11-17T08:58:46.636Z,75.84
2022-11-17T09:01:16.785Z,76.32
2022-11-17T09:03:46.663Z,76.13
2022-11-17T09:06:16.780Z,76.10
2022-11-17T09:08:46.623Z,76.20
2022-11-17T09:11:16.855Z,76.11
2022-11-17T09:13:45.938Z,76.63
2022-11-17T09:16:14.744Z,77.21
2022-11-17T09:18:43.197Z,76.43
2022-11-17T09:21:15.600Z,75.76
2022-11-17T09:23:43.780Z,75.61
2022-11-17T09:26:13.921Z,75.83
2022-11-17T09:28:42.483Z,76.17
2022-11-17T09:31:21.588Z,76.66
2022-11-17T09:33:49.372Z,76.30
2022-11-17T09:36:17.443Z,76.44
2022-11-17T09:38:46.832Z,76.78
2022-11-17T09:41:32.643Z,76.62
2022-11-17T09:44:18.299Z,77.08
2022-11-17T09:47:13.396Z,77.08
2022-11-17T09:50:22.309Z,76.82
2022-11-17T09:53:10.175Z,76.86
2022-11-17T09:55:47.322Z,76.47
2022-11-17T09:58:42.252Z,76.36
2022-11-17T10:01:13.161Z,76.69
2022-11-17T10:03:46.358Z,76.24
2022-11-17T10:06:19.440Z,76.05
2022-11-17T10:09:05.896Z,75.98
2022-11-17T10:11:38.294Z,75.37
2022-11-17T10:14:10.031Z,75.75
2022-11-17T10:16:39.932Z,75.25
2022-11-17T10:19:18.160Z,75.04
2022-11-17T10:21:54.214Z,75.58
2022-11-17T10:24:46.884Z,75.37
2022-11-17T10:27:17.311Z,75.12
2022-11-17T10:30:20.676Z,74.89
2022-11-17T10:32:53.606Z,74.81
2022-11-17T10:35:35.962Z,74.53
2022-11-17T10:38:08.595Z,74.29
2022-11-17T10:40:39.328Z,75.54
2022-11-17T10:43:12.832Z,75.00
2022-11-17T10:45:55.162Z,75.15
2022-11-17T10:48:35.908Z,75.16
2022-11-17T10:51:22.508Z,75.28
2022-11-17T10:54:14.945Z,75.56
2022-11-17T10:56:49.574Z,75.40
2022-11-17T10:59:41.770Z,76.62
2022-11-17T11:02:30.012Z,76.12
2022-11-17T11:05:10.113Z,75.36
2022-11-17T11:07:38.741Z,74.70
2022-11-17T11:10:43.722Z,73.99
2022-11-17T11:13:39.734Z,73.75
2022-11-17T11:16:11.481Z,73.49
2022-11-17T11:18:39.816Z,73.10
2022-11-17T11:21:31.823Z,72.39
2022-11-17T11:24:05.523Z,72.82
2022-11-17T11:27:01.180Z,74.06
2022-11-17T11:29:58.247Z,73.46
2022-11-17T11:33:08.198Z,73.09
2022-11-17T11:35:41.999Z,72.33
2022-11-17T11:38:18.754Z,72.32
2022-11-17T11:41:10.757Z,72.36
2022-11-17T11:43:55.681Z,70.97
2022-11-17T11:46:42.053Z,71.21
2022-11-17T11:49:31.098Z,71.99
2022-11-17T11:52:00.855Z,72.24
2022-11-17T11:54:40.449Z,71.79
2022-11-17T11:57:17.059Z,71.25
2022-11-17T12:00:04.438Z,71.13
2022-11-17T12:03:02.869Z,72.22
2022-11-17T12:05:36.617Z,70.92
2022-11-17T12:08:25.127Z,70.58
2022-11-17T12:11:26.259Z,70.88
2022-11-17T12:13:54.722Z,70.17
2022-11-17T12:16:36.943Z,71.08
2022-11-17T12:19:42.963Z,70.92
2022-11-17T12:22:34.554Z,70.56
2022-11-17T12:25:28.143Z,69.71
2022-11-17T12:27:56.455Z,70.13
2022-11-17T12:30:32.945Z,69.30
2022-11-17T12:33:10.295Z,70.53
2022-11-17T12:35:39.915Z,70.28
2022-11-17T12:38:14.153Z,70.46
2022-11-17T12:40:43.334Z,70.18
2022-11-17T12:43:23.225Z,70.09
2022-11-17T12:45:52.427Z,69.79
2022-11-17T12:48:37.784Z,70.23
2022-11-17T12:51:39.351Z,70.15
2022-11-17T12:54:21.211Z,69.97
2022-11-17T12:56:54.055Z,70.41
2022-11-17T12:59:57.429Z,70.30
2022-11-17T13:02:38.204Z,70.33
2022-11-17T13:05:16.053Z,70.18
2022-11-17T13:07:43.884Z,69.50
2022-11-17T13:10:31.852Z,69.67
2022-11-17T13:13:10.625Z,69.46
2022-11-17T13:15:40.048Z,70.23
2022-11-17T13:18:18.695Z,70.10
2022-11-17T13:20:49.128Z,69.65
2022-11-17T13:23:26.435Z,69.68
2022-11-17T13:26:11.427Z,69.89
2022-11-17T13:28:39.237Z,69.65
2022-11-17T13:31:16.659Z,69.57
2022-11-17T13:33:56.084Z,70.14
2022-11-17T13:36:27.221Z,69.60
2022-11-17T13:38:57.449Z,70.90
2022-11-17T13:41:26.035Z,70.80
2022-11-17T13:43:55.331Z,71.34
2022-11-17T13:46:23.076Z,71.03
2022-11-17T13:48:51.761Z,71.22
2022-11-17T13:51:24.777Z,71.10
2022-11-17T13:54:13.618Z,71.29
2022-11-17T13:56:49.910Z,71.41
2022-11-17T13:59:37.738Z,71.48
2022-11-17T14:02:19.162Z,71.27
2022-11-17T14:05:16.816Z,70.08
2022-11-17T14:07:45.978Z,70.89
2022-11-17T14:10:28.786Z,70.97
2022-11-17T14:13:05.451Z,70.77
2022-11-17T14:15:39.869Z,70.62
2022-11-17T14:18:39.300Z,71.66
2022-11-17T14:21:16.213Z,71.76
2022-11-17T14:24:07.473Z,71.81
2022-11-17T14:26:41.705Z,71.11
2022-11-17T14:29:12.784Z,70.87
2022-11-17T14:31:41.343Z,71.18
2022-11-17T14:34:29.097Z,71.54
2022-11-17T14:37:17.699Z,71.12
2022-11-17T14:40:07.772Z,70.63
2022-11-17T14:42:57.983Z,70.93
2022-11-17T14:45:45.895Z,71.47
2022-11-17T14:48:19.335Z,71.63
2022-11-17T14:50:57.752Z,71.35
2022-11-17T14:53:27.027Z,71.86
2022-11-17T14:55:54.809Z,71.98
2022-11-17T14:58:22.554Z,71.58
2022-11-17T15:00:51.007Z,72.01
2022-11-17T15:03:18.710Z,73.04
2022-11-17T15:05:46.482Z,72.56
2022-11-17T15:08:14.853Z,73.12
2022-11-17T15:10:46.835Z,73.43
2022-11-17T15:13:38.104Z,73.77
2022-11-17T15:16:07.209Z,73.21
2022-11-17T15:18:36.513Z,73.19
2022-11-17T15:21:10.685Z,72.69
2022-11-17T15:23:41.238Z,72.39
2022-11-17T15:26:12.988Z,72.76
2022-11-17T15:28:41.689Z,73.35
2022-11-17T15:31:15.751Z,73.21
2022-11-17T15:33:46.813Z,72.87
2022-11-17T15:36:20.727Z,72.75
2022-11-17T15:38:49.414Z,74.08
2022-11-17T15:41:17.402Z,73.23
2022-11-17T15:43:45.897Z,72.96
2022-11-17T15:46:18.351Z,72.99
2022-11-17T15:48:49.220Z,72.84
2022-11-17T15:51:25.381Z,72.20
2022-11-17T15:54:00.146Z,71.78
2022-11-17T15:56:30.803Z,71.86
2022-11-17T15:59:05.044Z,71.20
2022-11-17T16:01:36.545Z,72.73
2022-11-17T16:04:13.359Z,72.50
2022-11-17T16:06:43.114Z,72.91
2022-11-17T16:09:15.207Z,73.07
2022-11-17T16:11:43.975Z,74.17
2022-11-17T16:14:12.470Z,73.26
2022-11-17T16:16:40.300Z,73.61
2022-11-17T16:19:08.353Z,72.12
2022-11-17T16:21:36.433Z,71.36
2022-11-17T16:24:04.418Z,71.66
2022-11-17T16:26:33.955Z,74.59
2022-11-17T16:29:05.270Z,73.69
2022-11-17T16:31:34.911Z,72.93
2022-11-17T16:34:14.290Z,73.04
2022-11-17T16:36:43.421Z,74.19
2022-11-17T16:39:20.200Z,73.78
2022-11-17T16:41:51.383Z,74.31
2022-11-17T16:44:20.501Z,74.77
2022-11-17T16:46:50.031Z,74.94
2022-11-17T16:49:19.338Z,73.11
2022-11-17T16:51:52.803Z,73.13
2022-11-17T16:54:21.418Z,73.96
2022-11-17T16:56:49.550Z,74.61
2022-11-17T16:59:17.493Z,74.68
2022-11-17T17:01:45.786Z,73.02
2022-11-17T17:04:38.856Z,72.52
2022-11-17T17:07:06.733Z,72.86
2022-11-17T17:09:35.002Z,73.04
2022-11-17T17:12:02.712Z,73.18
2022-11-17T17:14:30.633Z,74.27
2022-11-17T17:16:58.883Z,73.77
2022-11-17T17:19:27.418Z,72.93
2022-11-17T17:21:55.348Z,73.24
2022-11-17T17:24:23.488Z,73.26
2022-11-17T17:26:51.117Z,73.08
2022-11-17T17:29:19.761Z,72.60
2022-11-17T17:31:47.828Z,73.63
2022-11-17T17:34:22.829Z,73.73
2022-11-17T17:37:50.775Z,74.63
2022-11-17T17:41:05.549Z,75.95
2022-11-17T17:44:16.100Z,77.17
2022-11-17T17:47:08.833Z,75.66
2022-11-17T17:49:37.447Z,74.79
2022-11-17T17:55:32.846Z,74.80
2022-11-17T17:58:42.263Z,74.51
2022-11-17T18:01:37.123Z,74.89
2022-11-17T18:04:25.123Z,73.87
2022-11-17T18:06:53.101Z,73.66
2022-11-17T18:09:24.864Z,75.01
2022-11-17T18:11:52.722Z,75.82
2022-11-17T18:14:24.472Z,74.95
2022-11-17T18:16:54.283Z,76.65
2022-11-17T18:19:31.428Z,77.81
2022-11-17T18:22:05.448Z,77.51
2022-11-17T18:24:40.891Z,79.17
2022-11-17T18:27:10.134Z,78.27
2022-11-17T18:29:38.061Z,78.13
2022-11-17T18:32:05.874Z,77.86
2022-11-17T18:34:34.610Z,77.52
2022-11-17T18:37:02.573Z,75.48
2022-11-17T18:39:32.525Z,75.98
2022-11-17T18:42:00.789Z,77.28
2022-11-17T18:44:28.927Z,77.17
2022-11-17T18:47:01.343Z,77.96
2022-11-17T18:49:31.563Z,76.72
2022-11-17T18:51:59.727Z,76.48
2022-11-17T18:54:27.627Z,76.75
2022-11-17T18:56:56.328Z,76.51
2022-11-17T18:59:24.326Z,76.59
2022-11-17T19:01:53.991Z,75.90
2022-11-17T19:04:22.234Z,76.12
2022-11-17T19:06:50.968Z,76.58
2022-11-17T19:09:19.600Z,76.20
2022-11-17T19:11:47.943Z,75.48
2022-11-17T19:14:15.739Z,75.64
2022-11-17T19:16:45.312Z,75.62
2022-11-17T19:19:14.553Z,75.71
2022-11-17T19:21:43.583Z,76.14
2022-11-17T19:24:11.975Z,76.08
2022-11-17T19:26:40.308Z,76.09
2022-11-17T19:29:17.255Z,75.76
2022-11-17T19:31:47.646Z,75.32
2022-11-17T19:34:16.002Z,75.46
2022-11-17T19:36:44.935Z,74.92
2022-11-17T19:39:14.257Z,75.43
2022-11-17T19:41:47.356Z,74.98
2022-11-17T19:44:15.662Z,75.05
2022-11-17T19:46:43.562Z,75.30
2022-11-17T19:49:12.789Z,75.57
2022-11-17T19:51:42.510Z,75.62
2022-11-17T19:54:14.323Z,75.76
2022-11-17T19:56:42.580Z,75.87
2022-11-17T19:59:15.676Z,75.77
2022-11-17T20:01:45.228Z,75.11
2022-11-17T20:04:13.404Z,75.50
2022-11-17T20:06:41.348Z,76.12
2022-11-17T20:09:13.902Z,76.44
2022-11-17T20:11:42.551Z,76.98
2022-11-17T20:14:10.956Z,76.57
2022-11-17T20:16:38.910Z,78.71
2022-11-17T20:19:07.027Z,78.74
2022-11-17T20:21:34.979Z,78.34
2022-11-17T20:24:03.359Z,77.45
2022-11-17T20:26:35.403Z,77.53
2022-11-17T20:29:05.435Z,77.44
2022-11-17T20:31:35.403Z,78.33
2022-11-17T20:34:05.571Z,78.01
2022-11-17T20:36:35.359Z,77.31
2022-11-17T20:39:05.816Z,78.08
2022-11-17T20:41:34.156Z,78.88
2022-11-17T20:44:03.407Z,77.79
2022-11-17T20:46:31.391Z,78.10
2022-11-17T20:48:59.850Z,79.42
2022-11-17T20:51:28.221Z,79.46
2022-11-17T20:53:56.127Z,77.56
2022-11-17T20:56:24.187Z,78.22
2022-11-17T20:58:51.865Z,78.53
2022-11-17T21:01:21.813Z,79.01
2022-11-17T21:03:50.388Z,78.98
2022-11-17T21:06:19.812Z,79.11
2022-11-17T21:08:47.589Z,78.39
2022-11-17T21:11:36.672Z,78.02
2022-11-17T21:14:05.695Z,77.48
2022-11-17T21:16:34.893Z,78.08
2022-11-17T21:19:02.702Z,78.33
2022-11-17T21:21:30.441Z,78.28
2022-11-17T21:23:58.618Z,78.78
2022-11-17T21:26:27.857Z,78.23
2022-11-17T21:28:55.768Z,78.25
2022-11-17T21:31:26.868Z,78.13
2022-11-17T21:33:59.778Z,78.28
2022-11-17T21:36:29.833Z,78.02
2022-11-17T21:38:58.316Z,78.88
2022-11-17T21:41:30.974Z,78.09
2022-11-17T21:44:00.558Z,78.58
2022-11-17T21:46:31.435Z,79.77
2022-11-17T21:49:00.000Z,79.57
2022-11-17T21:51:30.085Z,80.30
2022-11-17T21:54:00.218Z,79.00
2022-11-17T21:56:29.245Z,78.12
2022-11-17T21:59:02.504Z,78.57
2022-11-17T22:01:31.183Z,78.56
2022-11-17T22:03:59.197Z,79.34
2022-11-17T22:06:27.509Z,79.54
2022-11-17T22:08:56.495Z,79.22
2022-11-17T22:11:37.465Z,81.03
2022-11-17T22:14:12.684Z,80.21
2022-11-17T22:16:48.391Z,80.05
2022-11-17T22:19:17.628Z,79.61
2022-11-17T22:21:48.656Z,80.27
2022-11-17T22:24:16.410Z,79.84
2022-11-17T22:26:44.813Z,80.07
2022-11-17T22:29:15.863Z,80.77
2022-11-17T22:31:44.678Z,80.25
2022-11-17T22:34:13.766Z,79.62
2022-11-17T22:36:41.731Z,79.21
2022-11-17T22:39:09.541Z,79.06
2022-11-17T22:41:37.699Z,79.15
2022-11-17T22:44:06.399Z,79.46
2022-11-17T22:46:35.006Z,78.88
2022-11-17T22:49:03.367Z,78.52
2022-11-17T22:51:49.677Z,78.16
2022-11-17T22:54:17.705Z,78.23
2022-11-17T22:56:46.175Z,78.92
2022-11-17T22:59:13.854Z,79.08
2022-11-17T23:01:42.133Z,79.05
2022-11-17T23:04:11.448Z,78.60
2022-11-17T23:06:39.163Z,78.63
2022-11-17T23:09:07.412Z,79.14
2022-11-17T23:11:37.911Z,79.23
2022-11-17T23:14:08.146Z,79.21
2022-11-17T23:16:37.699Z,78.74
2022-11-17T23:19:06.532Z,78.21
2022-11-17T23:21:34.251Z,79.47
2022-11-17T23:24:02.357Z,80.23
2022-11-17T23:26:30.022Z,80.48
2022-11-17T23:28:58.328Z,79.15
2022-11-17T23:31:28.001Z,79.57
2022-11-17T23:33:55.640Z,79.45
2022-11-17T23:36:24.134Z,79.07
2022-11-17T23:38:54.270Z,79.02
2022-11-17T23:41:22.381Z,79.82
2022-11-17T23:43:51.755Z,80.19
2022-11-17T23:46:22.732Z,79.56
2022-11-17T23:48:50.441Z,80.04
2022-11-17T23:51:20.762Z,80.16
2022-11-17T23:53:49.720Z,80.47
2022-11-17T23:56:19.636Z,80.49
2022-11-17T23:58:48.119Z,81.14
